createdAt,value
2023-02-01T00:01:35.222Z,101199.02
2023-02-01T00:04:02.434Z,101196.95
2023-02-01T00:06:31.668Z,101198.69
2023-02-01T00:08:59.020Z,101196.97
2023-02-01T00:11:26.274Z,101195.77
2023-02-01T00:13:53.832Z,101196.46
2023-02-01T00:16:28.662Z,101197.84
2023-02-01T00:19:06.868Z,101194.58
2023-02-01T00:21:34.536Z,101196.44
2023-02-01T00:24:02.399Z,101190.05
2023-02-01T00:26:34.738Z,101194.50
2023-02-01T00:29:03.582Z,101196.92
2023-02-01T00:31:30.893Z,101196.67
2023-02-01T00:33:58.265Z,101195.64
2023-02-01T00:36:25.107Z,101198.09
2023-02-01T00:38:52.156Z,101198.67
2023-02-01T00:41:20.641Z,101194.21
2023-02-01T00:43:47.995Z,101188.55
2023-02-01T00:46:16.198Z,101188.73
2023-02-01T00:48:43.127Z,101186.29
2023-02-01T00:51:12.304Z,101189.05
2023-02-01T00:53:40.479Z,101186.79
2023-02-01T00:56:08.648Z,101188.34
2023-02-01T00:58:35.797Z,101189.46
2023-02-01T01:01:11.195Z,101191.86
2023-02-01T01:03:40.849Z,101185.48
2023-02-01T01:06:10.922Z,101189.58
2023-02-01T01:08:38.039Z,101190.95
2023-02-01T01:11:16.599Z,101189.05
2023-02-01T01:13:43.892Z,101190.09
2023-02-01T01:16:11.305Z,101191.93
2023-02-01T01:18:38.899Z,101194.67
2023-02-01T01:21:06.563Z,101194.67
2023-02-01T01:23:34.754Z,101196.75
2023-02-01T01:26:07.959Z,101198.36
2023-02-01T01:28:35.293Z,101193.91
2023-02-01T01:31:03.140Z,101196.14
2023-02-01T01:33:30.088Z,101194.94
2023-02-01T01:35:57.236Z,101196.66
2023-02-01T01:38:24.283Z,101197.20
2023-02-01T01:40:51.952Z,101195.69
2023-02-01T01:43:22.691Z,101194.88
2023-02-01T01:45:51.157Z,101199.18
2023-02-01T01:48:28.551Z,101198.69
2023-02-01T01:51:01.757Z,101196.45
2023-02-01T01:53:32.763Z,101194.38
2023-02-01T01:55:59.745Z,101192.46
2023-02-01T01:58:27.691Z,101190.08
2023-02-01T02:00:55.145Z,101190.27
2023-02-01T02:03:35.213Z,101189.91
2023-02-01T02:06:03.371Z,101191.98
2023-02-01T02:08:30.531Z,101192.86
2023-02-01T02:11:00.550Z,101196.48
2023-02-01T02:13:40.694Z,101195.48
2023-02-01T02:16:46.650Z,101194.96
2023-02-01T02:19:38.480Z,101190.84
2023-02-01T02:22:24.369Z,101195.98
2023-02-01T02:25:30.020Z,101195.29
2023-02-01T02:28:09.458Z,101195.82
2023-02-01T02:30:58.176Z,101196.16
2023-02-01T02:33:50.345Z,101197.54
2023-02-01T02:37:02.552Z,101200.12
2023-02-01T02:39:32.568Z,101198.89
2023-02-01T02:42:32.397Z,101201.48
2023-02-01T02:45:24.724Z,101205.27
2023-02-01T02:48:23.615Z,101203.73
2023-02-01T02:51:31.418Z,101202.50
2023-02-01T02:54:26.423Z,101200.27
2023-02-01T02:57:12.616Z,101198.00
2023-02-01T02:59:59.353Z,101199.55
2023-02-01T03:02:46.007Z,101199.17
2023-02-01T03:05:13.594Z,101198.83
2023-02-01T03:07:44.425Z,101196.80
2023-02-01T03:10:18.755Z,101201.63
2023-02-01T03:12:58.106Z,101198.02
2023-02-01T03:15:47.038Z,101198.88
2023-02-01T03:18:17.598Z,101197.84
2023-02-01T03:20:46.764Z,101199.90
2023-02-01T03:23:14.633Z,101203.15
2023-02-01T03:25:41.890Z,101201.09
2023-02-01T03:28:09.645Z,101201.77
2023-02-01T03:30:38.673Z,101205.22
2023-02-01T03:33:14.285Z,101208.33
2023-02-01T03:35:50.752Z,101206.41
2023-02-01T03:38:24.153Z,101206.75
2023-02-01T03:41:04.202Z,101209.68
2023-02-01T03:43:35.344Z,101205.03
2023-02-01T03:46:04.461Z,101208.13
2023-02-01T03:48:32.111Z,101208.98
2023-02-01T03:51:01.244Z,101208.44
2023-02-01T03:53:29.983Z,101207.56
2023-02-01T03:55:57.143Z,101208.91
2023-02-01T03:58:24.081Z,101205.83
2023-02-01T04:00:56.078Z,101203.77
2023-02-01T04:03:24.017Z,101202.55
2023-02-01T04:05:51.770Z,101196.85
2023-02-01T04:08:20.245Z,101195.80
2023-02-01T04:10:49.651Z,101195.11
2023-02-01T04:13:18.235Z,101195.42
2023-02-01T04:15:46.406Z,101192.85
2023-02-01T04:18:13.455Z,101189.36
2023-02-01T04:20:40.506Z,101185.89
2023-02-01T04:23:07.548Z,101187.79
2023-02-01T04:25:35.330Z,101191.52
2023-02-01T04:28:02.365Z,101201.12
2023-02-01T04:30:30.218Z,101212.95
2023-02-01T04:32:57.370Z,101231.17
2023-02-01T04:35:30.055Z,101233.04
2023-02-01T04:37:57.306Z,101227.15
2023-02-01T04:40:25.091Z,101233.67
2023-02-01T04:42:52.525Z,101241.54
2023-02-01T04:45:19.630Z,101241.48
2023-02-01T04:47:49.280Z,101238.08
2023-02-01T04:50:16.847Z,101243.63
2023-02-01T04:52:45.831Z,101250.98
2023-02-01T04:55:14.217Z,101256.23
2023-02-01T04:57:42.089Z,101257.06
2023-02-01T05:00:09.808Z,101255.83
2023-02-01T05:02:36.784Z,101259.10
2023-02-01T05:05:04.548Z,101255.64
2023-02-01T05:07:31.906Z,101258.52
2023-02-01T05:09:59.057Z,101261.74
2023-02-01T05:12:44.637Z,101259.89
2023-02-01T05:15:13.421Z,101259.20
2023-02-01T05:17:40.874Z,101258.00
2023-02-01T05:20:09.463Z,101260.21
2023-02-01T05:22:36.711Z,101262.25
2023-02-01T05:25:04.268Z,101265.66
2023-02-01T05:27:31.424Z,101267.86
2023-02-01T05:29:58.682Z,101272.66
2023-02-01T05:32:25.573Z,101274.91
2023-02-01T05:34:52.966Z,101272.64
2023-02-01T05:37:22.882Z,101279.84
2023-02-01T05:39:50.338Z,101282.73
2023-02-01T05:42:17.390Z,101285.63
2023-02-01T05:44:44.449Z,101288.36
2023-02-01T05:47:13.013Z,101289.91
2023-02-01T05:49:40.263Z,101289.75
2023-02-01T05:52:07.264Z,101289.76
2023-02-01T05:54:34.766Z,101285.61
2023-02-01T05:57:03.358Z,101285.79
2023-02-01T05:59:30.704Z,101289.64
2023-02-01T06:01:57.750Z,101285.61
2023-02-01T06:04:25.519Z,101288.50
2023-02-01T06:06:52.471Z,101286.89
2023-02-01T06:09:19.658Z,101283.72
2023-02-01T06:11:46.567Z,101286.14
2023-02-01T06:14:13.700Z,101288.88
2023-02-01T06:16:40.668Z,101288.02
2023-02-01T06:19:07.600Z,101286.55
2023-02-01T06:21:36.376Z,101288.17
2023-02-01T06:24:04.369Z,101283.80
2023-02-01T06:26:31.657Z,101286.33
2023-02-01T06:28:59.157Z,101289.14
2023-02-01T06:31:26.761Z,101290.61
2023-02-01T06:33:54.077Z,101293.09
2023-02-01T06:36:24.396Z,101293.15
2023-02-01T06:38:51.357Z,101290.96
2023-02-01T06:41:21.047Z,101290.16
2023-02-01T06:43:48.607Z,101288.61
2023-02-01T06:46:15.886Z,101283.80
2023-02-01T06:48:43.031Z,101282.77
2023-02-01T06:51:25.849Z,101281.05
2023-02-01T06:53:52.975Z,101283.47
2023-02-01T06:56:22.173Z,101287.27
2023-02-01T06:58:49.216Z,101288.45
2023-02-01T07:01:17.187Z,101296.71
2023-02-01T07:03:47.635Z,101305.33
2023-02-01T07:06:14.456Z,101308.25
2023-02-01T07:08:44.066Z,101310.13
2023-02-01T07:11:12.570Z,101313.02
2023-02-01T07:13:39.596Z,101310.92
2023-02-01T07:16:17.742Z,101310.90
2023-02-01T07:18:45.356Z,101312.25
2023-02-01T07:21:12.613Z,101316.73
2023-02-01T07:23:39.753Z,101316.73
2023-02-01T07:26:08.472Z,101315.20
2023-02-01T07:28:36.463Z,101315.52
2023-02-01T07:31:19.347Z,101314.71
2023-02-01T07:33:46.599Z,101315.20
2023-02-01T07:36:15.604Z,101312.41
2023-02-01T07:38:42.821Z,101311.06
2023-02-01T07:41:09.977Z,101307.64
2023-02-01T07:43:37.433Z,101307.13
2023-02-01T07:46:05.070Z,101308.68
2023-02-01T07:48:32.549Z,101302.65
2023-02-01T07:51:10.454Z,101304.52
2023-02-01T07:53:37.805Z,101300.38
2023-02-01T07:56:08.841Z,101304.15
2023-02-01T07:58:35.683Z,101307.25
2023-02-01T08:01:21.976Z,101306.20
2023-02-01T08:03:50.258Z,101305.02
2023-02-01T08:06:17.104Z,101305.05
2023-02-01T08:08:45.687Z,101306.31
2023-02-01T08:11:12.935Z,101303.23
2023-02-01T08:13:40.082Z,101303.23
2023-02-01T08:16:08.383Z,101304.79
2023-02-01T08:18:36.168Z,101297.39
2023-02-01T08:21:17.421Z,101290.02
2023-02-01T08:23:44.667Z,101286.58
2023-02-01T08:26:15.996Z,101282.09
2023-02-01T08:28:45.714Z,101284.48
2023-02-01T08:31:17.366Z,101283.09
2023-02-01T08:33:48.099Z,101279.66
2023-02-01T08:36:15.147Z,101278.98
2023-02-01T08:38:42.299Z,101291.77
2023-02-01T08:41:12.520Z,101301.81
2023-02-01T08:43:39.664Z,101309.23
2023-02-01T08:46:06.951Z,101305.29
2023-02-01T08:48:34.883Z,101308.40
2023-02-01T08:51:07.005Z,101313.76
2023-02-01T08:53:34.097Z,101311.35
2023-02-01T08:56:04.320Z,101311.88
2023-02-01T08:58:31.235Z,101312.58
2023-02-01T09:01:06.314Z,101314.48
2023-02-01T09:03:33.595Z,101311.72
2023-02-01T09:06:04.910Z,101303.45
2023-02-01T09:08:32.467Z,101308.29
2023-02-01T09:11:04.029Z,101297.92
2023-02-01T09:13:34.232Z,101287.05
2023-02-01T09:16:02.573Z,101283.95
2023-02-01T09:18:30.063Z,101283.09
2023-02-01T09:20:57.124Z,101284.65
2023-02-01T09:23:23.917Z,101284.82
2023-02-01T09:25:52.741Z,101284.81
2023-02-01T09:28:19.798Z,101281.36
2023-02-01T09:30:46.967Z,101277.39
2023-02-01T09:33:14.909Z,101271.34
2023-02-01T09:35:41.960Z,101263.75
2023-02-01T09:38:09.213Z,101260.29
2023-02-01T09:40:36.490Z,101255.98
2023-02-01T09:46:29.737Z,101254.58
2023-02-01T09:48:59.963Z,101252.16
2023-02-01T09:51:32.227Z,101255.09
2023-02-01T09:54:49.579Z,101253.35
2023-02-01T09:57:21.177Z,101251.79
2023-02-01T09:59:59.277Z,101249.70
2023-02-01T10:02:30.044Z,101250.70
2023-02-01T10:04:59.665Z,101246.73
2023-02-01T10:07:43.491Z,101243.63
2023-02-01T10:10:20.269Z,101241.22
2023-02-01T10:13:25.921Z,101236.72
2023-02-01T10:16:00.444Z,101237.23
2023-02-01T10:18:35.177Z,101235.52
2023-02-01T10:21:12.453Z,101235.15
2023-02-01T10:24:21.996Z,101234.81
2023-02-01T10:26:55.557Z,101233.40
2023-02-01T10:29:25.515Z,101227.35
2023-02-01T10:31:53.857Z,101223.89
2023-02-01T10:34:24.315Z,101222.31
2023-02-01T10:37:01.412Z,101216.95
2023-02-01T10:39:29.889Z,101210.53
2023-02-01T10:41:58.354Z,101214.14
2023-02-01T10:44:28.475Z,101215.86
2023-02-01T10:46:56.766Z,101213.61
2023-02-01T10:49:35.083Z,101212.20
2023-02-01T10:52:05.081Z,101211.16
2023-02-01T10:54:41.469Z,101206.49
2023-02-01T10:57:26.875Z,101203.21
2023-02-01T10:59:58.618Z,101199.26
2023-02-01T11:02:31.195Z,101203.60
2023-02-01T11:05:13.489Z,101198.55
2023-02-01T11:08:01.191Z,101200.46
2023-02-01T11:10:41.803Z,101192.86
2023-02-01T11:13:17.183Z,101190.80
2023-02-01T11:15:46.930Z,101189.02
2023-02-01T11:18:20.711Z,101183.46
2023-02-01T11:20:50.625Z,101183.94
2023-02-01T11:23:21.061Z,101178.54
2023-02-01T11:26:00.198Z,101178.36
2023-02-01T11:28:32.860Z,101174.72
2023-02-01T11:31:04.202Z,101171.63
2023-02-01T11:33:36.310Z,101171.49
2023-02-01T11:36:14.078Z,101163.56
2023-02-01T11:39:06.999Z,101161.33
2023-02-01T11:41:35.359Z,101158.23
2023-02-01T11:44:17.102Z,101159.77
2023-02-01T11:46:45.588Z,101158.72
2023-02-01T11:49:26.853Z,101159.06
2023-02-01T11:52:35.602Z,101155.73
2023-02-01T11:55:38.350Z,101152.05
2023-02-01T11:58:27.018Z,101150.10
2023-02-01T12:01:40.012Z,101150.96
2023-02-01T12:04:19.895Z,101160.79
2023-02-01T12:07:15.404Z,101162.15
2023-02-01T12:10:22.858Z,101149.85
2023-02-01T12:13:16.169Z,101151.91
2023-02-01T12:16:03.112Z,101153.32
2023-02-01T12:18:44.044Z,101155.59
2023-02-01T12:21:40.272Z,101160.80
2023-02-01T12:24:23.617Z,101158.23
2023-02-01T12:27:01.610Z,101160.86
2023-02-01T12:29:52.210Z,101161.04
2023-02-01T12:32:52.130Z,101157.45
2023-02-01T12:35:29.715Z,101154.38
2023-02-01T12:38:35.986Z,101152.31
2023-02-01T12:41:35.727Z,101149.73
2023-02-01T12:44:08.073Z,101153.86
2023-02-01T12:46:58.255Z,101153.68
2023-02-01T12:49:26.836Z,101161.96
2023-02-01T12:52:01.671Z,101161.26
2023-02-01T12:54:32.711Z,101161.42
2023-02-01T12:57:06.705Z,101161.25
2023-02-01T12:59:40.419Z,101162.48
2023-02-01T13:02:47.203Z,101166.63
2023-02-01T13:05:19.595Z,101166.29
2023-02-01T13:08:06.497Z,101162.52
2023-02-01T13:10:40.700Z,101162.03
2023-02-01T13:13:18.905Z,101165.85
2023-02-01T13:15:59.781Z,101162.96
2023-02-01T13:18:35.123Z,101167.98
2023-02-01T13:21:23.054Z,101170.27
2023-02-01T13:23:51.535Z,101167.91
2023-02-01T13:26:19.841Z,101172.79
2023-02-01T13:28:54.331Z,101172.12
2023-02-01T13:31:50.898Z,101177.34
2023-02-01T13:34:30.430Z,101181.67
2023-02-01T13:37:01.972Z,101183.08
2023-02-01T13:40:07.520Z,101182.03
2023-02-01T13:45:58.851Z,101186.69
2023-02-01T13:48:34.907Z,101190.67
2023-02-01T13:51:03.796Z,101189.31
2023-02-01T13:53:34.834Z,101188.98
2023-02-01T13:56:19.428Z,101184.52
2023-02-01T13:58:48.997Z,101182.96
2023-02-01T14:01:23.546Z,101187.45
2023-02-01T14:03:53.048Z,101185.05
2023-02-01T14:06:28.723Z,101180.55
2023-02-01T14:09:09.787Z,101178.83
2023-02-01T14:11:44.175Z,101174.52
2023-02-01T14:14:18.446Z,101176.92
2023-02-01T14:16:53.540Z,101176.76
2023-02-01T14:19:29.786Z,101174.52
2023-02-01T14:22:02.842Z,101176.60
2023-02-01T14:24:33.510Z,101175.76
2023-02-01T14:27:16.716Z,101175.41
2023-02-01T14:29:53.405Z,101179.39
2023-02-01T14:32:39.494Z,101180.42
2023-02-01T14:35:14.203Z,101183.88
2023-02-01T14:37:42.598Z,101184.22
2023-02-01T14:40:13.947Z,101182.50
2023-02-01T14:42:42.549Z,101183.36
2023-02-01T14:45:20.437Z,101182.15
2023-02-01T14:48:09.595Z,101180.25
2023-02-01T14:50:42.114Z,101182.33
2023-02-01T14:53:13.882Z,101185.95
2023-02-01T14:55:43.331Z,101184.41
2023-02-01T14:58:49.897Z,101188.02
2023-02-01T15:01:30.465Z,101190.61
2023-02-01T15:04:04.785Z,101191.30
2023-02-01T15:06:44.324Z,101195.29
2023-02-01T15:09:39.224Z,101195.10
2023-02-01T15:12:13.747Z,101203.73
2023-02-01T15:14:50.507Z,101205.63
2023-02-01T15:17:21.673Z,101207.86
2023-02-01T15:19:57.363Z,101213.40
2023-02-01T15:22:26.323Z,101214.09
2023-02-01T15:24:56.018Z,101218.55
2023-02-01T15:27:25.009Z,101217.18
2023-02-01T15:29:53.487Z,101218.23
2023-02-01T15:32:34.095Z,101216.31
2023-02-01T15:35:02.851Z,101220.97
2023-02-01T15:37:32.555Z,101220.45
2023-02-01T15:40:27.452Z,101225.63
2023-02-01T15:42:57.399Z,101230.11
2023-02-01T15:45:31.173Z,101232.68
2023-02-01T15:48:00.161Z,101236.83
2023-02-01T15:50:33.886Z,101242.16
2023-02-01T15:53:02.455Z,101249.05
2023-02-01T15:55:43.652Z,101252.34
2023-02-01T15:58:17.763Z,101252.32
2023-02-01T16:00:48.129Z,101257.13
2023-02-01T16:03:38.863Z,101254.38
2023-02-01T16:06:28.131Z,101258.00
2023-02-01T16:08:59.786Z,101255.41
2023-02-01T16:11:31.687Z,101254.91
2023-02-01T16:14:02.794Z,101259.92
2023-02-01T16:16:31.309Z,101258.01
2023-02-01T16:18:59.963Z,101261.11
2023-02-01T16:21:28.335Z,101260.75
2023-02-01T16:23:57.433Z,101262.11
2023-02-01T16:26:26.363Z,101265.20
2023-02-01T16:28:55.015Z,101264.02
2023-02-01T16:31:27.521Z,101262.11
2023-02-01T16:33:56.371Z,101264.52
2023-02-01T16:36:25.662Z,101263.30
2023-02-01T16:38:54.555Z,101262.42
2023-02-01T16:41:24.776Z,101257.59
2023-02-01T16:43:55.004Z,101259.46
2023-02-01T16:46:26.648Z,101261.17
2023-02-01T16:48:57.897Z,101262.90
2023-02-01T16:51:28.014Z,101262.19
2023-02-01T16:53:57.659Z,101264.08
2023-02-01T16:56:36.883Z,101263.73
2023-02-01T16:59:05.545Z,101267.50
2023-02-01T17:01:34.135Z,101266.27
2023-02-01T17:04:03.673Z,101264.71
2023-02-01T17:06:33.758Z,101264.70
2023-02-01T17:09:04.008Z,101258.65
2023-02-01T17:11:32.350Z,101259.34
2023-02-01T17:14:16.634Z,101255.88
2023-02-01T17:16:45.875Z,101253.81
2023-02-01T17:19:20.507Z,101248.63
2023-02-01T17:21:57.028Z,101248.61
2023-02-01T17:24:33.269Z,101250.83
2023-02-01T17:27:04.902Z,101257.69
2023-02-01T17:29:33.385Z,101260.94
2023-02-01T17:32:03.048Z,101261.97
2023-02-01T17:34:32.494Z,101265.73
2023-02-01T17:37:01.180Z,101261.76
2023-02-01T17:39:53.018Z,101263.66
2023-02-01T17:42:21.696Z,101270.17
2023-02-01T17:44:51.504Z,101270.84
2023-02-01T17:47:19.882Z,101275.11
2023-02-01T17:49:56.800Z,101268.73
2023-02-01T17:52:26.501Z,101270.27
2023-02-01T17:54:55.359Z,101272.67
2023-02-01T17:57:23.794Z,101274.22
2023-02-01T17:59:53.242Z,101275.76
2023-02-01T18:02:23.756Z,101283.98
2023-02-01T18:04:52.883Z,101284.30
2023-02-01T18:07:24.214Z,101283.93
2023-02-01T18:09:52.697Z,101286.49
2023-02-01T18:12:22.919Z,101288.55
2023-02-01T18:14:51.293Z,101286.48
2023-02-01T18:17:20.596Z,101285.96
2023-02-01T18:19:49.734Z,101283.88
2023-02-01T18:22:19.909Z,101289.67
2023-02-01T18:24:48.313Z,101288.11
2023-02-01T18:27:16.666Z,101284.81
2023-02-01T18:29:45.351Z,101284.10
2023-02-01T18:32:13.934Z,101280.48
2023-02-01T18:34:42.720Z,101278.59
2023-02-01T18:37:11.508Z,101274.11
2023-02-01T18:39:39.991Z,101278.91
2023-02-01T18:42:10.655Z,101278.88
2023-02-01T18:44:39.044Z,101280.91
2023-02-01T18:47:07.783Z,101277.95
2023-02-01T18:49:37.763Z,101276.39
2023-02-01T18:52:07.005Z,101273.30
2023-02-01T18:54:35.495Z,101271.60
2023-02-01T18:57:07.034Z,101276.06
2023-02-01T18:59:35.715Z,101273.80
2023-02-01T19:02:04.604Z,101274.99
2023-02-01T19:04:34.288Z,101273.06
2023-02-01T19:07:04.026Z,101264.11
2023-02-01T19:09:35.603Z,101266.15
2023-02-01T19:12:05.282Z,101261.64
2023-02-01T19:14:33.606Z,101261.14
2023-02-01T19:17:02.246Z,101261.32
2023-02-01T19:19:30.833Z,101260.65
2023-02-01T19:21:59.838Z,101262.89
2023-02-01T19:24:29.944Z,101264.25
2023-02-01T19:26:58.469Z,101265.74
2023-02-01T19:29:27.111Z,101265.38
2023-02-01T19:31:55.699Z,101268.81
2023-02-01T19:34:24.475Z,101265.71
2023-02-01T19:36:54.288Z,101269.66
2023-02-01T19:39:25.274Z,101266.23
2023-02-01T19:41:53.710Z,101266.04
2023-02-01T19:44:22.391Z,101270.48
2023-02-01T19:46:52.228Z,101264.63
2023-02-01T19:49:20.799Z,101266.68
2023-02-01T19:51:49.275Z,101268.58
2023-02-01T19:54:17.648Z,101269.79
2023-02-01T19:56:48.173Z,101272.38
2023-02-01T19:59:17.547Z,101275.11
2023-02-01T20:01:46.936Z,101275.45
2023-02-01T20:04:19.098Z,101275.42
2023-02-01T20:06:49.324Z,101282.98
2023-02-01T20:09:20.974Z,101282.60
2023-02-01T20:11:49.561Z,101279.46
2023-02-01T20:14:17.737Z,101274.30
2023-02-01T20:16:46.229Z,101274.86
2023-02-01T20:19:15.214Z,101274.71
2023-02-01T20:21:44.930Z,101275.42
2023-02-01T20:24:17.483Z,101278.34
2023-02-01T20:26:46.794Z,101275.41
2023-02-01T20:29:15.532Z,101275.23
2023-02-01T20:31:46.119Z,101274.18
2023-02-01T20:34:14.746Z,101277.11
2023-02-01T20:36:43.741Z,101277.13
2023-02-01T20:39:12.041Z,101280.92
2023-02-01T20:41:41.321Z,101280.59
2023-02-01T20:44:09.708Z,101288.31
2023-02-01T20:46:38.307Z,101288.82
2023-02-01T20:49:06.773Z,101289.83
2023-02-01T20:51:35.250Z,101292.73
2023-02-01T20:54:03.727Z,101288.95
2023-02-01T20:56:32.620Z,101287.60
2023-02-01T20:59:04.279Z,101286.59
2023-02-01T21:01:32.963Z,101288.67
2023-02-01T21:04:01.660Z,101292.63
2023-02-01T21:06:33.816Z,101288.51
2023-02-01T21:09:02.314Z,101289.00
2023-02-01T21:11:30.880Z,101293.27
2023-02-01T21:14:00.693Z,101291.21
2023-02-01T21:16:29.536Z,101290.56
2023-02-01T21:18:58.063Z,101289.56
2023-02-01T21:21:26.443Z,101287.02
2023-02-01T21:23:58.518Z,101287.70
2023-02-01T21:26:27.243Z,101285.99
2023-02-01T21:28:56.494Z,101285.11
2023-02-01T21:31:26.250Z,101284.95
2023-02-01T21:33:54.558Z,101282.02
2023-02-01T21:36:22.864Z,101282.38
2023-02-01T21:38:53.215Z,101284.47
2023-02-01T21:41:42.761Z,101287.73
2023-02-01T21:44:14.875Z,101287.55
2023-02-01T21:46:43.819Z,101287.55
2023-02-01T21:49:12.431Z,101285.64
2023-02-01T21:51:41.505Z,101284.95
2023-02-01T21:54:11.218Z,101281.50
2023-02-01T21:56:40.400Z,101283.23
2023-02-01T21:59:10.419Z,101282.39
2023-02-01T22:01:40.934Z,101279.30
2023-02-01T22:04:10.443Z,101277.77
2023-02-01T22:06:48.763Z,101274.98
2023-02-01T22:09:24.489Z,101272.75
2023-02-01T22:11:53.932Z,101269.48
2023-02-01T22:14:24.849Z,101261.90
2023-02-01T22:16:53.279Z,101263.98
2023-02-01T22:19:22.119Z,101260.73
2023-02-01T22:21:50.997Z,101260.75
2023-02-01T22:24:23.067Z,101257.98
2023-02-01T22:26:51.377Z,101262.26
2023-02-01T22:29:20.328Z,101262.40
2023-02-01T22:31:49.657Z,101261.00
2023-02-01T22:34:18.313Z,101265.30
2023-02-01T22:36:49.153Z,101262.20
2023-02-01T22:39:18.148Z,101266.84
2023-02-01T22:41:46.621Z,101262.71
2023-02-01T22:44:15.009Z,101263.73
2023-02-01T22:46:43.409Z,101266.79
2023-02-01T22:49:11.951Z,101265.19
2023-02-01T22:51:40.760Z,101269.97
2023-02-01T22:54:16.008Z,101267.19
2023-02-01T22:56:44.248Z,101269.25
2023-02-01T22:59:14.256Z,101272.34
2023-02-01T23:01:42.942Z,101267.86
2023-02-01T23:04:13.676Z,101264.25
2023-02-01T23:06:42.492Z,101255.63
2023-02-01T23:09:19.232Z,101255.25
2023-02-01T23:11:48.019Z,101251.11
2023-02-01T23:14:17.321Z,101245.98
2023-02-01T23:16:46.662Z,101242.06
2023-02-01T23:19:14.997Z,101247.77
2023-02-01T23:21:43.884Z,101251.38
2023-02-01T23:24:12.389Z,101250.02
2023-02-01T23:26:46.305Z,101247.10
2023-02-01T23:29:17.375Z,101243.14
2023-02-01T23:31:45.986Z,101239.02
2023-02-01T23:37:38.662Z,101229.47
2023-02-01T23:40:07.762Z,101230.02
2023-02-01T23:42:36.136Z,101221.77
2023-02-01T23:45:05.024Z,101226.27
2023-02-01T23:47:33.813Z,101227.30
2023-02-01T23:50:02.432Z,101228.48
2023-02-01T23:52:30.983Z,101225.90
2023-02-01T23:54:59.359Z,101227.30
2023-02-01T23:57:27.733Z,101229.89
2023-02-01T23:59:55.917Z,101227.52
